Terminal Aerodrome Forecast
Issued by NWS Portland, OR

Home | Current Version | Previous Version | Text Only | Print | Product List | Glossary On
Versions: 1 2 3 4 5 6 7 8 9 10 11 12 13 14 15 16 17 18 19 20 21 22 23 24 25 26 27 28 29 30 31 32 33 34 35 36
000
FTUS46 KPQR 211133
TAFTTD
TAF
KTTD 211133Z 2112/2212 24009KT P6SM -SHRA SCT035 BKN050 OVC080
      TEMPO 2112/2116 BKN030 OVC050
     FM211800 25009KT P6SM -SHRA BKN035 OVC060
     FM220400 VRB03KT P6SM VCSH SCT035 OVC050=

USA.gov is the U.S. government's official web portal to all federal, state and local government web resources and services.